createdAt,value
2019-03-21T00:01:51.685Z,49.00
2019-03-21T00:04:23.460Z,48.90
2019-03-21T00:15:34.070Z,49.20
2019-03-21T00:18:14.195Z,49.00
2019-03-21T00:20:43.643Z,49.30
2019-03-21T00:23:13.336Z,49.20
2019-03-21T00:25:43.842Z,50.10
2019-03-21T00:28:13.210Z,49.20
2019-03-21T00:31:01.490Z,49.20
2019-03-21T00:33:31.410Z,49.20
2019-03-21T00:36:01.233Z,49.20
2019-03-21T00:38:56.438Z,49.30
2019-03-21T00:41:28.563Z,49.30
2019-03-21T00:44:20.678Z,49.30
2019-03-21T00:47:09.089Z,49.30
2019-03-21T00:49:39.834Z,49.40
2019-03-21T01:33:31.891Z,49.50
2019-03-21T01:36:01.564Z,49.50
2019-03-21T01:38:31.840Z,49.50
2019-03-21T01:41:04.879Z,49.60
2019-03-21T01:43:35.378Z,49.50
2019-03-21T01:46:09.061Z,49.50
2019-03-21T01:48:49.358Z,49.60
2019-03-21T01:51:21.220Z,49.50
2019-03-21T01:53:57.815Z,49.50
2019-03-21T01:56:27.217Z,49.60
2019-03-21T01:58:57.199Z,49.40
2019-03-21T02:01:46.078Z,49.40
2019-03-21T02:04:15.706Z,49.30
2019-03-21T02:06:45.555Z,49.30
2019-03-21T02:09:34.464Z,49.40
2019-03-21T02:12:04.126Z,49.40
2019-03-21T02:14:35.782Z,49.30
2019-03-21T02:17:05.903Z,49.30
2019-03-21T02:19:37.740Z,49.30
2019-03-21T02:22:44.994Z,49.30
2019-03-21T02:25:21.960Z,49.20
2019-03-21T02:27:51.922Z,49.40
2019-03-21T02:30:29.241Z,49.30
2019-03-21T02:33:13.966Z,49.30
2019-03-21T02:35:47.851Z,49.30
2019-03-21T02:38:58.999Z,49.40
2019-03-21T02:41:47.567Z,49.40
2019-03-21T02:44:21.297Z,49.40
2019-03-21T02:46:54.489Z,49.50
2019-03-21T02:49:29.623Z,49.40
2019-03-21T02:52:06.793Z,49.60
2019-03-21T02:54:40.303Z,49.40
2019-03-21T02:57:10.458Z,49.50
2019-03-21T02:59:44.253Z,49.60
2019-03-21T03:02:13.917Z,49.40
2019-03-21T03:04:43.995Z,49.40
2019-03-21T03:07:24.779Z,49.40
2019-03-21T03:09:54.378Z,49.40
2019-03-21T03:12:24.219Z,49.40
2019-03-21T03:14:53.741Z,49.40
2019-03-21T03:17:25.083Z,49.40
2019-03-21T03:19:58.428Z,49.40
2019-03-21T03:22:28.107Z,49.40
2019-03-21T03:24:59.848Z,49.40
2019-03-21T03:31:03.563Z,49.40
2019-03-21T03:33:36.110Z,49.40
2019-03-21T03:36:09.374Z,49.50
2019-03-21T03:38:39.268Z,49.50
2019-03-21T03:41:24.352Z,49.60
2019-03-21T03:44:26.583Z,49.60
2019-03-21T03:47:18.995Z,49.50
2019-03-21T03:49:48.709Z,49.50
2019-03-21T03:55:09.643Z,49.30
2019-03-21T03:57:39.216Z,49.30
2019-03-21T04:00:14.894Z,49.30
2019-03-21T04:02:46.022Z,49.30
2019-03-21T04:05:15.781Z,49.30
2019-03-21T04:07:45.688Z,49.20
2019-03-21T04:10:20.297Z,49.20
2019-03-21T04:15:53.782Z,49.20
2019-03-21T04:18:25.576Z,49.10
2019-03-21T04:20:58.500Z,49.20
2019-03-21T04:23:33.716Z,49.20
2019-03-21T04:26:28.858Z,49.20
2019-03-21T04:29:25.089Z,49.20
2019-03-21T04:32:02.751Z,49.20
2019-03-21T04:38:33.298Z,49.30
2019-03-21T04:41:15.406Z,49.20
2019-03-21T04:43:45.042Z,49.20
2019-03-21T04:46:16.690Z,49.20
2019-03-21T04:48:47.008Z,49.20
2019-03-21T04:51:37.058Z,49.30
2019-03-21T04:54:07.485Z,49.30
2019-03-21T04:56:37.339Z,49.30
2019-03-21T04:59:17.967Z,49.30
2019-03-21T05:02:33.339Z,49.30
2019-03-21T05:05:01.911Z,49.30
2019-03-21T05:07:31.870Z,49.20
2019-03-21T05:10:02.492Z,49.30
2019-03-21T05:12:33.163Z,49.30
2019-03-21T05:15:08.703Z,49.30
2019-03-21T05:17:38.480Z,49.30
2019-03-21T05:20:14.206Z,49.30
2019-03-21T05:22:54.336Z,49.30
2019-03-21T05:25:24.289Z,49.40
2019-03-21T05:28:04.544Z,49.40
2019-03-21T05:30:42.397Z,49.50
2019-03-21T05:34:21.155Z,49.60
2019-03-21T05:39:17.057Z,49.80
2019-03-21T05:42:06.269Z,49.80
2019-03-21T05:44:41.911Z,49.80
2019-03-21T05:47:23.275Z,49.80
2019-03-21T05:49:54.418Z,49.70
2019-03-21T05:52:29.852Z,49.50
2019-03-21T05:55:18.284Z,49.20
2019-03-21T05:57:48.806Z,49.20
2019-03-21T06:00:39.364Z,48.90
2019-03-21T06:03:13.008Z,48.90
2019-03-21T06:05:45.165Z,48.90
2019-03-21T06:08:21.459Z,48.90
2019-03-21T06:10:53.604Z,49.10
2019-03-21T06:13:28.413Z,49.10
2019-03-21T06:16:07.298Z,49.20
2019-03-21T06:19:12.936Z,49.20
2019-03-21T06:22:41.102Z,49.20
2019-03-21T06:25:41.641Z,49.30
2019-03-21T06:28:22.603Z,50.00
2019-03-21T06:31:02.779Z,50.40
2019-03-21T06:33:37.610Z,50.80
2019-03-21T06:36:08.274Z,51.70
2019-03-21T06:38:59.530Z,52.60
2019-03-21T06:41:36.181Z,53.40
2019-03-21T06:44:12.226Z,53.80
2019-03-21T06:46:49.376Z,53.50
2019-03-21T06:49:16.194Z,53.50
2019-03-21T06:51:46.132Z,53.40
2019-03-21T06:57:02.683Z,53.00
2019-03-21T06:59:33.781Z,53.00
2019-03-21T07:02:03.470Z,52.90
2019-03-21T07:04:39.082Z,52.70
2019-03-21T07:07:13.094Z,52.60
2019-03-21T07:09:47.221Z,52.50
2019-03-21T07:12:24.167Z,52.30
2019-03-21T07:14:55.112Z,52.10
2019-03-21T07:17:27.465Z,52.00
2019-03-21T07:19:57.431Z,52.00
2019-03-21T07:22:28.999Z,51.80
2019-03-21T07:24:58.831Z,51.80
2019-03-21T07:27:28.544Z,51.70
2019-03-21T07:29:58.186Z,51.30
2019-03-21T07:32:35.640Z,51.50
2019-03-21T07:35:16.924Z,51.50
2019-03-21T07:37:48.732Z,51.40
2019-03-21T07:40:23.595Z,51.40
2019-03-21T07:42:56.398Z,52.00
2019-03-21T07:45:34.905Z,51.30
2019-03-21T07:50:30.399Z,51.40
2019-03-21T07:53:00.578Z,51.50
2019-03-21T07:55:31.565Z,51.50
2019-03-21T07:58:01.033Z,51.60
2019-03-21T08:00:33.996Z,51.40
2019-03-21T08:03:13.380Z,51.50
2019-03-21T08:05:52.110Z,51.40
2019-03-21T08:11:42.117Z,51.40
2019-03-21T08:14:13.048Z,51.40
2019-03-21T08:16:48.240Z,51.40
2019-03-21T08:19:17.858Z,51.40
2019-03-21T08:21:47.478Z,51.30
2019-03-21T08:24:16.938Z,51.20
2019-03-21T08:26:54.118Z,51.20
2019-03-21T08:32:53.454Z,51.20
2019-03-21T08:35:26.174Z,51.20
2019-03-21T08:38:17.151Z,51.20
2019-03-21T08:40:47.102Z,51.10
2019-03-21T08:43:18.854Z,51.10
2019-03-21T08:45:48.615Z,51.10
2019-03-21T08:48:18.060Z,51.10
2019-03-21T08:50:47.779Z,51.10
2019-03-21T08:53:23.632Z,51.10
2019-03-21T08:55:54.520Z,51.10
2019-03-21T08:58:33.487Z,51.10
2019-03-21T09:01:03.487Z,51.20
2019-03-21T09:03:34.235Z,51.20
2019-03-21T09:08:40.227Z,51.10
2019-03-21T09:11:11.273Z,51.10
2019-03-21T09:13:57.928Z,51.00
2019-03-21T09:16:27.989Z,51.80
2019-03-21T09:18:58.052Z,51.00
2019-03-21T09:21:33.320Z,51.00
2019-03-21T09:24:27.207Z,51.00
2019-03-21T09:26:57.063Z,51.00
2019-03-21T09:30:00.687Z,51.00
2019-03-21T09:32:30.522Z,50.90
2019-03-21T09:35:02.772Z,51.10
2019-03-21T09:37:32.404Z,51.10
2019-03-21T09:40:09.104Z,51.00
2019-03-21T09:42:40.276Z,50.90
2019-03-21T09:45:11.684Z,50.80
2019-03-21T09:48:02.150Z,51.50
2019-03-21T09:50:31.783Z,50.80
2019-03-21T09:53:11.203Z,50.70
2019-03-21T09:55:41.119Z,50.70
2019-03-21T09:58:12.317Z,50.70
2019-03-21T10:00:45.159Z,50.80
2019-03-21T10:03:14.989Z,50.60
2019-03-21T10:05:45.606Z,50.60
2019-03-21T10:08:16.352Z,50.50
2019-03-21T10:10:49.791Z,50.50
2019-03-21T10:13:22.673Z,50.40
2019-03-21T10:16:44.025Z,50.50
2019-03-21T10:19:18.433Z,50.50
2019-03-21T10:21:48.078Z,50.40
2019-03-21T10:24:21.479Z,50.40
2019-03-21T10:26:51.440Z,50.30
2019-03-21T10:29:21.512Z,50.40
2019-03-21T10:32:14.461Z,50.30
2019-03-21T10:34:46.093Z,50.40
2019-03-21T10:37:26.148Z,50.40
2019-03-21T10:39:59.550Z,50.30
2019-03-21T10:42:30.571Z,50.30
2019-03-21T10:45:14.555Z,50.40
2019-03-21T10:48:38.048Z,50.40
2019-03-21T10:51:11.788Z,50.30
2019-03-21T10:53:46.814Z,50.30
2019-03-21T10:56:16.908Z,50.30
2019-03-21T10:58:58.550Z,50.10
2019-03-21T11:01:29.233Z,50.10
2019-03-21T11:04:02.235Z,50.20
2019-03-21T11:06:32.076Z,50.10
2019-03-21T11:09:14.773Z,50.20
2019-03-21T11:11:44.960Z,50.20
2019-03-21T11:14:21.389Z,50.20
2019-03-21T11:16:54.208Z,50.20
2019-03-21T11:19:27.083Z,50.20
2019-03-21T11:22:17.575Z,50.10
2019-03-21T11:24:59.171Z,49.80
2019-03-21T11:27:36.655Z,49.80
2019-03-21T11:30:16.108Z,49.80
2019-03-21T11:32:40.023Z,49.70
2019-03-21T11:35:10.015Z,49.70
2019-03-21T11:37:48.067Z,49.70
2019-03-21T11:40:21.054Z,49.50
2019-03-21T11:43:15.590Z,49.40
2019-03-21T11:46:09.255Z,49.40
2019-03-21T11:48:40.204Z,49.20
2019-03-21T11:51:09.818Z,49.20
2019-03-21T11:53:43.656Z,49.20
2019-03-21T11:59:03.466Z,49.20
2019-03-21T12:04:24.619Z,49.00
2019-03-21T12:07:12.750Z,49.00
2019-03-21T12:12:41.872Z,49.00
2019-03-21T12:15:13.547Z,48.90
2019-03-21T12:17:44.600Z,48.90
2019-03-21T12:20:17.670Z,49.00
2019-03-21T12:22:54.900Z,49.00
2019-03-21T12:25:27.891Z,48.90
2019-03-21T12:27:58.182Z,48.90
2019-03-21T12:30:57.924Z,48.80
2019-03-21T12:33:31.671Z,48.90
2019-03-21T12:36:06.148Z,48.80
2019-03-21T12:38:43.283Z,48.80
2019-03-21T12:41:13.070Z,48.80
2019-03-21T12:43:46.407Z,48.80
2019-03-21T12:46:21.563Z,48.80
2019-03-21T12:48:51.554Z,48.80
2019-03-21T12:51:23.620Z,49.40
2019-03-21T12:53:53.437Z,48.80
2019-03-21T12:56:23.899Z,48.70
2019-03-21T12:58:53.725Z,48.70
2019-03-21T13:01:25.544Z,48.70
2019-03-21T13:03:59.036Z,48.60
2019-03-21T13:06:29.191Z,48.60
2019-03-21T13:09:11.891Z,48.70
2019-03-21T13:11:46.606Z,48.60
2019-03-21T13:14:24.397Z,48.60
2019-03-21T13:17:01.702Z,48.50
2019-03-21T13:19:32.709Z,48.50
2019-03-21T13:24:39.401Z,48.40
2019-03-21T13:27:21.468Z,48.40
2019-03-21T13:29:52.855Z,48.40
2019-03-21T13:32:32.825Z,48.50
2019-03-21T13:35:03.109Z,48.40
2019-03-21T13:37:32.590Z,48.40
2019-03-21T13:40:02.500Z,48.50
2019-03-21T13:48:15.136Z,48.40
2019-03-21T13:50:44.746Z,48.40
2019-03-21T13:53:19.069Z,48.40
2019-03-21T13:55:47.745Z,48.30
2019-03-21T13:58:18.548Z,48.30
2019-03-21T14:00:48.180Z,48.30
2019-03-21T14:03:25.231Z,48.30
2019-03-21T14:05:55.339Z,48.20
2019-03-21T14:08:26.242Z,48.30
2019-03-21T14:10:55.903Z,48.20
2019-03-21T14:13:27.860Z,48.20
2019-03-21T14:15:58.147Z,48.30
2019-03-21T14:18:27.865Z,48.20
2019-03-21T14:27:00.000Z,48.20
2019-03-21T14:29:32.939Z,48.20
2019-03-21T14:32:02.551Z,48.20
2019-03-21T14:35:16.728Z,48.30
2019-03-21T14:37:46.562Z,48.30
2019-03-21T14:40:16.802Z,48.30
2019-03-21T14:42:49.967Z,48.20
2019-03-21T14:45:20.500Z,48.20
2019-03-21T14:51:14.941Z,48.20
2019-03-21T14:54:34.206Z,48.30
2019-03-21T14:56:21.966Z,48.20
2019-03-21T14:59:08.678Z,48.10
2019-03-21T15:04:45.750Z,48.20
2019-03-21T15:07:15.700Z,48.20
2019-03-21T15:09:45.287Z,48.20
2019-03-21T15:12:23.088Z,48.20
2019-03-21T15:14:53.492Z,48.10
2019-03-21T15:17:27.317Z,48.10
2019-03-21T15:23:40.164Z,48.40
2019-03-21T15:26:05.255Z,48.20
2019-03-21T15:28:36.106Z,48.30
2019-03-21T15:31:07.619Z,48.30
2019-03-21T15:33:37.148Z,48.40
2019-03-21T15:36:07.176Z,48.40
2019-03-21T15:38:44.291Z,48.40
2019-03-21T15:41:24.048Z,48.40
2019-03-21T15:43:53.578Z,48.30
2019-03-21T15:46:22.999Z,48.30
2019-03-21T15:48:59.827Z,48.30
2019-03-21T15:51:33.995Z,48.30
2019-03-21T15:54:15.457Z,48.40
2019-03-21T15:59:20.964Z,48.40
2019-03-21T16:17:32.037Z,48.50
2019-03-21T16:20:08.124Z,48.70
2019-03-21T16:22:40.073Z,48.70
2019-03-21T16:28:30.193Z,48.70
2019-03-21T16:31:04.021Z,48.80
2019-03-21T16:33:34.725Z,48.70
2019-03-21T16:38:42.112Z,48.80
2019-03-21T16:41:13.174Z,48.90
2019-03-21T16:43:54.973Z,48.90
2019-03-21T16:46:28.561Z,48.90
2019-03-21T16:49:13.535Z,48.90
2019-03-21T16:51:44.016Z,48.90
2019-03-21T16:54:17.502Z,48.90
2019-03-21T16:56:48.501Z,49.00
2019-03-21T16:59:29.396Z,49.00
2019-03-21T17:02:00.303Z,48.90
2019-03-21T17:04:30.428Z,48.90
2019-03-21T17:07:01.211Z,49.00
2019-03-21T17:09:40.123Z,48.90
2019-03-21T17:12:14.139Z,49.00
2019-03-21T17:14:56.037Z,49.00
2019-03-21T17:17:30.938Z,49.00
2019-03-21T17:22:33.735Z,49.00
2019-03-21T17:25:07.410Z,49.10
2019-03-21T17:27:50.086Z,49.10
2019-03-21T17:30:19.835Z,49.00
2019-03-21T17:32:57.362Z,49.20
2019-03-21T17:35:30.420Z,49.20
2019-03-21T17:38:06.997Z,49.20
2019-03-21T17:40:46.195Z,49.30
2019-03-21T17:43:30.645Z,49.20
2019-03-21T17:46:07.717Z,49.20
2019-03-21T17:48:38.905Z,49.10
2019-03-21T17:53:51.738Z,49.10
2019-03-21T17:56:21.179Z,49.10
2019-03-21T17:58:58.997Z,49.10
2019-03-21T18:01:26.206Z,49.10
2019-03-21T18:06:31.419Z,49.20
2019-03-21T18:12:14.728Z,49.30
2019-03-21T18:14:47.739Z,49.40
2019-03-21T18:17:21.052Z,49.50
2019-03-21T18:19:51.055Z,49.50
2019-03-21T18:22:45.641Z,49.40
2019-03-21T18:25:22.404Z,49.40
2019-03-21T18:27:52.640Z,49.40
2019-03-21T18:30:40.955Z,49.30
2019-03-21T18:33:22.244Z,49.40
2019-03-21T18:36:08.011Z,49.30
2019-03-21T18:38:37.855Z,49.30
2019-03-21T18:41:17.535Z,49.40
2019-03-21T18:43:47.097Z,49.40
2019-03-21T18:46:20.735Z,49.40
2019-03-21T18:48:50.299Z,49.40
2019-03-21T18:51:24.561Z,49.60
2019-03-21T18:53:55.779Z,49.60
2019-03-21T18:56:33.558Z,49.50
2019-03-21T18:59:11.372Z,49.40
2019-03-21T19:01:40.927Z,49.30
2019-03-21T19:04:12.850Z,49.20
2019-03-21T19:06:42.719Z,48.60
2019-03-21T19:09:13.073Z,49.10
2019-03-21T19:11:42.886Z,49.10
2019-03-21T19:14:18.151Z,49.10
2019-03-21T19:16:51.067Z,49.30
2019-03-21T19:19:22.680Z,49.50
2019-03-21T19:21:56.703Z,49.40
2019-03-21T19:24:27.221Z,49.30
2019-03-21T19:27:00.857Z,49.20
2019-03-21T19:29:30.604Z,49.20
2019-03-21T19:32:00.124Z,49.10
2019-03-21T19:34:44.857Z,49.00
2019-03-21T19:37:15.040Z,49.10
2019-03-21T19:39:47.915Z,49.30
2019-03-21T19:42:20.509Z,49.20
2019-03-21T19:45:12.006Z,49.20
2019-03-21T19:47:44.915Z,49.20
2019-03-21T19:50:14.645Z,49.20
2019-03-21T19:52:44.337Z,49.20
2019-03-21T19:55:14.662Z,49.90
2019-03-21T19:57:54.426Z,49.10
2019-03-21T20:00:24.467Z,49.30
2019-03-21T20:02:55.385Z,49.20
2019-03-21T20:05:24.853Z,49.30
2019-03-21T20:10:40.061Z,49.30
2019-03-21T20:13:09.549Z,49.20
2019-03-21T20:18:54.182Z,49.00
2019-03-21T20:21:26.575Z,49.10
2019-03-21T20:23:57.717Z,48.90
2019-03-21T20:26:30.275Z,49.00
2019-03-21T20:29:17.535Z,49.10
2019-03-21T20:31:47.533Z,48.90
2019-03-21T20:37:48.774Z,48.80
2019-03-21T20:40:18.436Z,48.90
2019-03-21T20:45:44.037Z,48.90
2019-03-21T20:48:28.675Z,48.80
2019-03-21T20:51:00.724Z,48.80
2019-03-21T20:53:34.710Z,48.70
2019-03-21T20:56:10.633Z,48.50
2019-03-21T20:58:40.475Z,48.40
2019-03-21T21:01:10.181Z,48.40
2019-03-21T21:03:39.975Z,48.40
2019-03-21T21:06:15.136Z,48.40
2019-03-21T21:11:44.226Z,48.60
2019-03-21T21:17:05.647Z,48.60
2019-03-21T21:19:36.311Z,48.90
2019-03-21T21:22:14.032Z,48.60
2019-03-21T21:24:46.664Z,48.50
2019-03-21T21:27:21.213Z,48.50
2019-03-21T21:29:51.939Z,48.50
2019-03-21T21:34:58.706Z,48.50
2019-03-21T21:37:30.651Z,48.70
2019-03-21T21:42:36.519Z,48.60
2019-03-21T21:45:20.717Z,48.70
2019-03-21T21:47:52.708Z,48.80
2019-03-21T21:50:25.408Z,48.70
2019-03-21T21:53:13.657Z,48.80
2019-03-21T21:55:43.139Z,48.80
2019-03-21T21:58:14.071Z,48.90
2019-03-21T22:00:43.677Z,48.70
2019-03-21T22:03:15.111Z,48.80
2019-03-21T22:05:44.787Z,48.70
2019-03-21T22:08:14.665Z,48.80
2019-03-21T22:10:46.000Z,48.70
2019-03-21T22:13:16.382Z,48.60
2019-03-21T22:15:45.954Z,48.50
2019-03-21T22:18:36.918Z,48.60
2019-03-21T22:21:40.297Z,48.60
2019-03-21T22:24:36.030Z,48.50
2019-03-21T22:27:24.737Z,48.70
2019-03-21T22:29:54.940Z,48.70
2019-03-21T22:32:29.663Z,48.50
2019-03-21T22:34:59.448Z,48.50
2019-03-21T22:37:33.621Z,48.50
2019-03-21T22:40:02.067Z,48.30
2019-03-21T22:42:32.835Z,48.30
2019-03-21T22:45:13.643Z,48.20
2019-03-21T22:47:46.007Z,48.20
2019-03-21T22:50:19.108Z,48.30
2019-03-21T22:52:53.354Z,48.20
2019-03-21T22:55:32.418Z,48.20
2019-03-21T22:58:09.174Z,48.30
2019-03-21T23:00:47.518Z,48.30
2019-03-21T23:03:17.255Z,48.30
2019-03-21T23:05:46.844Z,48.90
2019-03-21T23:08:24.467Z,48.30
2019-03-21T23:10:54.034Z,48.30
2019-03-21T23:13:24.838Z,48.20
2019-03-21T23:15:57.025Z,48.20
2019-03-21T23:18:27.941Z,48.20
2019-03-21T23:21:10.459Z,48.20
2019-03-21T23:23:44.898Z,48.20
2019-03-21T23:26:18.283Z,48.30
2019-03-21T23:28:59.343Z,48.30
2019-03-21T23:31:29.466Z,48.20
2019-03-21T23:36:55.971Z,48.20
2019-03-21T23:39:32.207Z,48.20
2019-03-21T23:42:06.117Z,48.30
2019-03-21T23:44:35.451Z,48.40
2019-03-21T23:47:06.382Z,48.40
2019-03-21T23:52:27.629Z,48.50
2019-03-21T23:54:58.656Z,48.60
2019-03-21T23:57:55.664Z,48.60
